sensor_id;sensor_type;location;lat;lon;timestamp;temperature;humidity
11983;DHT22;72623;51.184;7.176;2024-03-25T00:02:13;6.50;99.90
11983;DHT22;72623;51.184;7.176;2024-03-25T00:04:40;6.50;99.90
11983;DHT22;72623;51.184;7.176;2024-03-25T00:07:05;6.50;99.90
11983;DHT22;72623;51.184;7.176;2024-03-25T00:09:32;6.50;99.90
11983;DHT22;72623;51.184;7.176;2024-03-25T00:11:58;6.50;99.90
11983;DHT22;72623;51.184;7.176;2024-03-25T00:14:25;6.50;99.90
11983;DHT22;72623;51.184;7.176;2024-03-25T00:16:50;6.50;99.90
11983;DHT22;72623;51.184;7.176;2024-03-25T00:19:17;6.50;99.90
11983;DHT22;72623;51.184;7.176;2024-03-25T00:21:43;6.50;99.90
11983;DHT22;72623;51.184;7.176;2024-03-25T00:24:09;6.50;99.90
11983;DHT22;72623;51.184;7.176;2024-03-25T00:26:35;6.50;99.90
11983;DHT22;72623;51.184;7.176;2024-03-25T00:29:02;6.50;99.90
11983;DHT22;72623;51.184;7.176;2024-03-25T00:31:27;6.50;99.90
11983;DHT22;72623;51.184;7.176;2024-03-25T00:33:54;6.50;99.90
11983;DHT22;72623;51.184;7.176;2024-03-25T00:36:20;6.40;99.90
11983;DHT22;72623;51.184;7.176;2024-03-25T00:38:48;6.50;99.90
11983;DHT22;72623;51.184;7.176;2024-03-25T00:41:14;6.50;99.90
11983;DHT22;72623;51.184;7.176;2024-03-25T00:43:41;6.40;99.90
11983;DHT22;72623;51.184;7.176;2024-03-25T00:46:07;6.40;99.90
11983;DHT22;72623;51.184;7.176;2024-03-25T00:48:33;6.30;99.90
11983;DHT22;72623;51.184;7.176;2024-03-25T00:50:59;6.30;99.90
11983;DHT22;72623;51.184;7.176;2024-03-25T00:53:26;6.40;99.90
11983;DHT22;72623;51.184;7.176;2024-03-25T00:55:52;6.40;99.90
11983;DHT22;72623;51.184;7.176;2024-03-25T00:58:19;6.30;99.90
11983;DHT22;72623;51.184;7.176;2024-03-25T01:00:45;6.30;99.90
11983;DHT22;72623;51.184;7.176;2024-03-25T01:03:11;6.30;99.90
11983;DHT22;72623;51.184;7.176;2024-03-25T01:05:38;6.30;99.90
11983;DHT22;72623;51.184;7.176;2024-03-25T01:08:05;6.40;99.90
11983;DHT22;72623;51.184;7.176;2024-03-25T01:10:30;6.30;99.90
11983;DHT22;72623;51.184;7.176;2024-03-25T01:12:57;6.30;99.90
11983;DHT22;72623;51.184;7.176;2024-03-25T01:15:23;6.30;99.90
11983;DHT22;72623;51.184;7.176;2024-03-25T01:17:49;6.30;99.90
11983;DHT22;72623;51.184;7.176;2024-03-25T01:20:15;6.30;99.90
11983;DHT22;72623;51.184;7.176;2024-03-25T01:22:44;6.40;99.90
11983;DHT22;72623;51.184;7.176;2024-03-25T01:25:09;6.30;99.90
11983;DHT22;72623;51.184;7.176;2024-03-25T01:27:36;6.30;99.90
11983;DHT22;72623;51.184;7.176;2024-03-25T01:30:02;6.30;99.90
11983;DHT22;72623;51.184;7.176;2024-03-25T01:32:30;6.40;99.90
11983;DHT22;72623;51.184;7.176;2024-03-25T01:34:56;6.40;99.90
11983;DHT22;72623;51.184;7.176;2024-03-25T01:37:22;6.40;99.90
11983;DHT22;72623;51.184;7.176;2024-03-25T01:39:48;6.50;99.90
11983;DHT22;72623;51.184;7.176;2024-03-25T01:42:15;6.50;99.90
11983;DHT22;72623;51.184;7.176;2024-03-25T01:44:41;6.50;99.90
11983;DHT22;72623;51.184;7.176;2024-03-25T01:47:07;6.40;99.90
11983;DHT22;72623;51.184;7.176;2024-03-25T01:49:33;6.40;99.90
11983;DHT22;72623;51.184;7.176;2024-03-25T01:52:00;6.40;99.90
11983;DHT22;72623;51.184;7.176;2024-03-25T01:54:26;6.40;99.90
11983;DHT22;72623;51.184;7.176;2024-03-25T01:56:53;6.40;99.90
11983;DHT22;72623;51.184;7.176;2024-03-25T01:59:21;6.40;99.90
11983;DHT22;72623;51.184;7.176;2024-03-25T02:01:49;6.40;99.90
11983;DHT22;72623;51.184;7.176;2024-03-25T02:04:16;6.40;99.90
11983;DHT22;72623;51.184;7.176;2024-03-25T02:06:43;6.40;99.90
11983;DHT22;72623;51.184;7.176;2024-03-25T02:09:10;6.40;99.90
11983;DHT22;72623;51.184;7.176;2024-03-25T02:11:39;6.40;99.90
11983;DHT22;72623;51.184;7.176;2024-03-25T02:14:07;6.40;99.90
11983;DHT22;72623;51.184;7.176;2024-03-25T02:16:33;6.40;99.90
11983;DHT22;72623;51.184;7.176;2024-03-25T02:18:59;6.30;99.90
11983;DHT22;72623;51.184;7.176;2024-03-25T02:21:26;6.30;99.90
11983;DHT22;72623;51.184;7.176;2024-03-25T02:23:53;6.30;99.90
11983;DHT22;72623;51.184;7.176;2024-03-25T02:26:21;6.30;99.90
11983;DHT22;72623;51.184;7.176;2024-03-25T02:28:48;6.30;99.90
11983;DHT22;72623;51.184;7.176;2024-03-25T02:31:15;6.30;99.90
11983;DHT22;72623;51.184;7.176;2024-03-25T02:33:41;6.30;99.90
11983;DHT22;72623;51.184;7.176;2024-03-25T02:36:08;6.30;99.90
11983;DHT22;72623;51.184;7.176;2024-03-25T02:38:34;6.30;99.90
11983;DHT22;72623;51.184;7.176;2024-03-25T02:41:02;6.20;99.90
11983;DHT22;72623;51.184;7.176;2024-03-25T02:43:28;6.20;99.90
11983;DHT22;72623;51.184;7.176;2024-03-25T02:45:55;6.20;99.90
11983;DHT22;72623;51.184;7.176;2024-03-25T02:48:21;6.20;99.90
11983;DHT22;72623;51.184;7.176;2024-03-25T02:50:48;6.20;99.90
11983;DHT22;72623;51.184;7.176;2024-03-25T02:53:13;6.30;99.90
11983;DHT22;72623;51.184;7.176;2024-03-25T02:55:40;6.30;99.90
11983;DHT22;72623;51.184;7.176;2024-03-25T02:58:06;6.30;99.90
11983;DHT22;72623;51.184;7.176;2024-03-25T03:00:32;6.20;99.90
11983;DHT22;72623;51.184;7.176;2024-03-25T03:02:58;6.20;99.90
11983;DHT22;72623;51.184;7.176;2024-03-25T03:05:25;6.20;99.90
11983;DHT22;72623;51.184;7.176;2024-03-25T03:07:50;6.10;99.90
11983;DHT22;72623;51.184;7.176;2024-03-25T03:10:17;6.10;99.90
11983;DHT22;72623;51.184;7.176;2024-03-25T03:12:43;6.10;99.90
11983;DHT22;72623;51.184;7.176;2024-03-25T03:15:10;6.10;99.90
11983;DHT22;72623;51.184;7.176;2024-03-25T03:17:36;6.10;99.90
11983;DHT22;72623;51.184;7.176;2024-03-25T03:20:03;6.10;99.90
11983;DHT22;72623;51.184;7.176;2024-03-25T03:22:29;6.10;99.90
11983;DHT22;72623;51.184;7.176;2024-03-25T03:24:55;6.10;99.90
11983;DHT22;72623;51.184;7.176;2024-03-25T03:27:21;6.10;99.90
11983;DHT22;72623;51.184;7.176;2024-03-25T03:29:49;6.00;99.90
11983;DHT22;72623;51.184;7.176;2024-03-25T03:32:14;6.10;99.90
11983;DHT22;72623;51.184;7.176;2024-03-25T03:34:41;6.10;99.90
11983;DHT22;72623;51.184;7.176;2024-03-25T03:37:07;6.10;99.90
11983;DHT22;72623;51.184;7.176;2024-03-25T03:39:33;6.10;99.90
11983;DHT22;72623;51.184;7.176;2024-03-25T03:41:59;6.10;99.90
11983;DHT22;72623;51.184;7.176;2024-03-25T03:44:26;6.10;99.90
11983;DHT22;72623;51.184;7.176;2024-03-25T03:46:52;6.10;99.90
11983;DHT22;72623;51.184;7.176;2024-03-25T03:49:18;6.10;99.90
11983;DHT22;72623;51.184;7.176;2024-03-25T03:51:44;6.00;99.90
11983;DHT22;72623;51.184;7.176;2024-03-25T03:54:11;6.10;99.90
11983;DHT22;72623;51.184;7.176;2024-03-25T03:56:36;6.10;99.90
11983;DHT22;72623;51.184;7.176;2024-03-25T03:59:03;6.10;99.90
11983;DHT22;72623;51.184;7.176;2024-03-25T04:01:29;6.10;99.90
11983;DHT22;72623;51.184;7.176;2024-03-25T04:03:56;6.10;99.90
11983;DHT22;72623;51.184;7.176;2024-03-25T04:06:22;6.10;99.90
11983;DHT22;72623;51.184;7.176;2024-03-25T04:08:48;6.10;99.90
11983;DHT22;72623;51.184;7.176;2024-03-25T04:11:14;6.10;99.90
11983;DHT22;72623;51.184;7.176;2024-03-25T04:13:41;6.10;99.90
11983;DHT22;72623;51.184;7.176;2024-03-25T04:16:07;6.10;99.90
11983;DHT22;72623;51.184;7.176;2024-03-25T04:18:34;6.10;99.90
11983;DHT22;72623;51.184;7.176;2024-03-25T04:21:00;6.10;99.90
11983;DHT22;72623;51.184;7.176;2024-03-25T04:23:27;6.10;99.90
11983;DHT22;72623;51.184;7.176;2024-03-25T04:25:53;6.20;99.90
11983;DHT22;72623;51.184;7.176;2024-03-25T04:28:20;6.10;99.90
11983;DHT22;72623;51.184;7.176;2024-03-25T04:30:53;6.10;99.90
11983;DHT22;72623;51.184;7.176;2024-03-25T04:33:20;6.10;99.90
11983;DHT22;72623;51.184;7.176;2024-03-25T04:35:46;6.20;99.90
11983;DHT22;72623;51.184;7.176;2024-03-25T04:38:16;6.20;99.90
11983;DHT22;72623;51.184;7.176;2024-03-25T04:40:41;6.20;99.90
11983;DHT22;72623;51.184;7.176;2024-03-25T04:43:07;6.20;99.90
11983;DHT22;72623;51.184;7.176;2024-03-25T04:45:33;6.20;99.90
11983;DHT22;72623;51.184;7.176;2024-03-25T04:47:59;6.20;99.90
11983;DHT22;72623;51.184;7.176;2024-03-25T04:50:25;6.20;99.90
11983;DHT22;72623;51.184;7.176;2024-03-25T04:52:51;6.20;99.90
11983;DHT22;72623;51.184;7.176;2024-03-25T04:55:17;6.20;99.90
11983;DHT22;72623;51.184;7.176;2024-03-25T04:57:43;6.20;99.90
11983;DHT22;72623;51.184;7.176;2024-03-25T05:00:09;6.20;99.90
11983;DHT22;72623;51.184;7.176;2024-03-25T05:02:37;6.20;99.90
11983;DHT22;72623;51.184;7.176;2024-03-25T05:05:03;6.20;99.90
11983;DHT22;72623;51.184;7.176;2024-03-25T05:07:29;6.20;99.90
11983;DHT22;72623;51.184;7.176;2024-03-25T05:09:55;6.20;99.90
11983;DHT22;72623;51.184;7.176;2024-03-25T05:12:21;6.20;99.90
11983;DHT22;72623;51.184;7.176;2024-03-25T05:14:47;6.30;99.90
11983;DHT22;72623;51.184;7.176;2024-03-25T05:17:12;6.30;99.90
11983;DHT22;72623;51.184;7.176;2024-03-25T05:19:38;6.20;99.90
11983;DHT22;72623;51.184;7.176;2024-03-25T05:22:04;6.30;99.90
11983;DHT22;72623;51.184;7.176;2024-03-25T05:24:30;6.20;99.90
11983;DHT22;72623;51.184;7.176;2024-03-25T05:26:56;6.30;99.90
11983;DHT22;72623;51.184;7.176;2024-03-25T05:29:22;6.20;99.90
11983;DHT22;72623;51.184;7.176;2024-03-25T05:31:59;6.20;99.90
11983;DHT22;72623;51.184;7.176;2024-03-25T05:34:27;6.20;99.90
11983;DHT22;72623;51.184;7.176;2024-03-25T05:36:54;6.20;99.90
11983;DHT22;72623;51.184;7.176;2024-03-25T05:39:20;6.20;99.90
11983;DHT22;72623;51.184;7.176;2024-03-25T05:41:47;6.20;99.90
11983;DHT22;72623;51.184;7.176;2024-03-25T05:44:13;6.20;99.90
11983;DHT22;72623;51.184;7.176;2024-03-25T05:46:39;6.20;99.90
11983;DHT22;72623;51.184;7.176;2024-03-25T05:49:05;6.30;99.90
11983;DHT22;72623;51.184;7.176;2024-03-25T05:51:37;6.30;99.90
11983;DHT22;72623;51.184;7.176;2024-03-25T05:54:03;6.40;99.90
11983;DHT22;72623;51.184;7.176;2024-03-25T05:56:29;6.40;99.90
11983;DHT22;72623;51.184;7.176;2024-03-25T05:58:59;6.40;99.90
11983;DHT22;72623;51.184;7.176;2024-03-25T06:01:25;6.40;99.90
11983;DHT22;72623;51.184;7.176;2024-03-25T06:03:52;6.40;99.90
11983;DHT22;72623;51.184;7.176;2024-03-25T06:06:17;6.30;99.90
11983;DHT22;72623;51.184;7.176;2024-03-25T06:08:44;6.40;99.90
11983;DHT22;72623;51.184;7.176;2024-03-25T06:11:10;6.30;99.90
11983;DHT22;72623;51.184;7.176;2024-03-25T06:13:35;6.30;99.90
11983;DHT22;72623;51.184;7.176;2024-03-25T06:16:01;6.30;99.90
11983;DHT22;72623;51.184;7.176;2024-03-25T06:18:27;6.40;99.90
11983;DHT22;72623;51.184;7.176;2024-03-25T06:20:53;6.40;99.90
11983;DHT22;72623;51.184;7.176;2024-03-25T06:23:26;6.40;99.90
11983;DHT22;72623;51.184;7.176;2024-03-25T06:25:53;6.40;99.90
11983;DHT22;72623;51.184;7.176;2024-03-25T06:28:19;6.40;99.90
11983;DHT22;72623;51.184;7.176;2024-03-25T06:30:50;6.40;99.90
11983;DHT22;72623;51.184;7.176;2024-03-25T06:33:35;6.50;99.90
11983;DHT22;72623;51.184;7.176;2024-03-25T06:36:19;6.50;99.90
11983;DHT22;72623;51.184;7.176;2024-03-25T06:38:45;6.60;99.90
11983;DHT22;72623;51.184;7.176;2024-03-25T06:41:11;6.60;99.90
11983;DHT22;72623;51.184;7.176;2024-03-25T06:43:37;6.60;99.90
11983;DHT22;72623;51.184;7.176;2024-03-25T06:46:04;6.70;99.90
11983;DHT22;72623;51.184;7.176;2024-03-25T06:48:30;6.70;99.90
11983;DHT22;72623;51.184;7.176;2024-03-25T06:50:56;6.80;99.90
11983;DHT22;72623;51.184;7.176;2024-03-25T06:53:24;6.90;99.90
11983;DHT22;72623;51.184;7.176;2024-03-25T06:55:54;6.90;99.90
11983;DHT22;72623;51.184;7.176;2024-03-25T06:58:21;6.90;99.90
11983;DHT22;72623;51.184;7.176;2024-03-25T07:00:47;6.90;99.90
11983;DHT22;72623;51.184;7.176;2024-03-25T07:03:18;6.90;99.90
11983;DHT22;72623;51.184;7.176;2024-03-25T07:05:48;6.90;99.90
11983;DHT22;72623;51.184;7.176;2024-03-25T07:08:15;7.00;99.90
11983;DHT22;72623;51.184;7.176;2024-03-25T07:10:42;7.00;99.90
11983;DHT22;72623;51.184;7.176;2024-03-25T07:13:08;7.00;99.90
11983;DHT22;72623;51.184;7.176;2024-03-25T07:15:34;7.00;99.90
11983;DHT22;72623;51.184;7.176;2024-03-25T07:17:59;7.10;99.90
11983;DHT22;72623;51.184;7.176;2024-03-25T07:20:26;7.30;99.90
11983;DHT22;72623;51.184;7.176;2024-03-25T07:22:53;7.40;99.90
11983;DHT22;72623;51.184;7.176;2024-03-25T07:25:19;7.40;99.90
11983;DHT22;72623;51.184;7.176;2024-03-25T07:27:44;7.40;99.90
11983;DHT22;72623;51.184;7.176;2024-03-25T07:30:10;7.40;99.90
11983;DHT22;72623;51.184;7.176;2024-03-25T07:32:36;7.50;99.90
11983;DHT22;72623;51.184;7.176;2024-03-25T07:35:02;7.50;99.90
11983;DHT22;72623;51.184;7.176;2024-03-25T07:37:28;7.60;99.90
11983;DHT22;72623;51.184;7.176;2024-03-25T07:39:54;7.60;99.90
11983;DHT22;72623;51.184;7.176;2024-03-25T07:42:19;7.70;99.90
11983;DHT22;72623;51.184;7.176;2024-03-25T07:44:45;7.50;99.90
11983;DHT22;72623;51.184;7.176;2024-03-25T07:47:11;7.50;99.90
11983;DHT22;72623;51.184;7.176;2024-03-25T07:49:37;7.50;99.90
11983;DHT22;72623;51.184;7.176;2024-03-25T07:52:03;7.70;99.90
11983;DHT22;72623;51.184;7.176;2024-03-25T07:54:36;7.80;99.90
11983;DHT22;72623;51.184;7.176;2024-03-25T07:57:03;7.90;99.90
11983;DHT22;72623;51.184;7.176;2024-03-25T07:59:29;8.00;99.90
11983;DHT22;72623;51.184;7.176;2024-03-25T08:01:55;8.20;99.90
11983;DHT22;72623;51.184;7.176;2024-03-25T08:04:21;8.40;99.90
11983;DHT22;72623;51.184;7.176;2024-03-25T08:06:47;8.50;99.90
11983;DHT22;72623;51.184;7.176;2024-03-25T08:09:16;8.60;99.90
11983;DHT22;72623;51.184;7.176;2024-03-25T08:11:45;8.80;99.90
11983;DHT22;72623;51.184;7.176;2024-03-25T08:14:12;9.00;99.90
11983;DHT22;72623;51.184;7.176;2024-03-25T08:17:12;9.10;99.90
11983;DHT22;72623;51.184;7.176;2024-03-25T08:19:50;9.30;99.90
11983;DHT22;72623;51.184;7.176;2024-03-25T08:22:16;9.40;99.90
11983;DHT22;72623;51.184;7.176;2024-03-25T08:24:42;9.50;99.90
11983;DHT22;72623;51.184;7.176;2024-03-25T08:27:11;9.60;99.90
11983;DHT22;72623;51.184;7.176;2024-03-25T08:29:37;9.70;99.90
11983;DHT22;72623;51.184;7.176;2024-03-25T08:32:03;9.80;99.90
11983;DHT22;72623;51.184;7.176;2024-03-25T08:34:29;9.90;99.90
11983;DHT22;72623;51.184;7.176;2024-03-25T08:36:54;10.00;99.90
11983;DHT22;72623;51.184;7.176;2024-03-25T08:39:21;10.10;97.10
11983;DHT22;72623;51.184;7.176;2024-03-25T08:41:58;10.20;97.30
11983;DHT22;72623;51.184;7.176;2024-03-25T08:44:51;10.20;98.40
11983;DHT22;72623;51.184;7.176;2024-03-25T08:47:17;10.20;98.20
11983;DHT22;72623;51.184;7.176;2024-03-25T08:49:42;10.40;86.50
11983;DHT22;72623;51.184;7.176;2024-03-25T08:52:08;10.50;88.70
11983;DHT22;72623;51.184;7.176;2024-03-25T08:54:34;10.20;92.90
11983;DHT22;72623;51.184;7.176;2024-03-25T08:57:00;10.00;95.60
11983;DHT22;72623;51.184;7.176;2024-03-25T08:59:25;9.80;94.90
11983;DHT22;72623;51.184;7.176;2024-03-25T09:01:51;9.90;95.80
11983;DHT22;72623;51.184;7.176;2024-03-25T09:04:17;10.00;97.10
11983;DHT22;72623;51.184;7.176;2024-03-25T09:06:43;10.20;96.30
11983;DHT22;72623;51.184;7.176;2024-03-25T09:09:09;10.20;90.40
11983;DHT22;72623;51.184;7.176;2024-03-25T09:11:53;10.30;79.00
11983;DHT22;72623;51.184;7.176;2024-03-25T09:14:18;10.30;70.50
11983;DHT22;72623;51.184;7.176;2024-03-25T09:16:44;10.20;83.90
11983;DHT22;72623;51.184;7.176;2024-03-25T09:19:10;10.20;78.30
11983;DHT22;72623;51.184;7.176;2024-03-25T09:21:36;10.20;90.60
11983;DHT22;72623;51.184;7.176;2024-03-25T09:24:02;10.30;81.60
11983;DHT22;72623;51.184;7.176;2024-03-25T09:26:27;10.30;71.30
11983;DHT22;72623;51.184;7.176;2024-03-25T09:28:53;10.50;90.10
11983;DHT22;72623;51.184;7.176;2024-03-25T09:31:22;10.70;88.40
11983;DHT22;72623;51.184;7.176;2024-03-25T09:33:48;10.70;66.60
11983;DHT22;72623;51.184;7.176;2024-03-25T09:36:16;10.70;65.20
11983;DHT22;72623;51.184;7.176;2024-03-25T09:38:41;10.70;56.70
11983;DHT22;72623;51.184;7.176;2024-03-25T09:41:08;10.90;65.30
11983;DHT22;72623;51.184;7.176;2024-03-25T09:43:43;11.00;62.00
11983;DHT22;72623;51.184;7.176;2024-03-25T09:46:10;11.00;57.20
11983;DHT22;72623;51.184;7.176;2024-03-25T09:48:37;10.90;49.80
11983;DHT22;72623;51.184;7.176;2024-03-25T09:51:04;10.80;50.30
11983;DHT22;72623;51.184;7.176;2024-03-25T09:53:30;10.60;49.10
11983;DHT22;72623;51.184;7.176;2024-03-25T09:55:57;10.40;69.60
11983;DHT22;72623;51.184;7.176;2024-03-25T09:58:24;10.60;69.60
11983;DHT22;72623;51.184;7.176;2024-03-25T10:00:51;10.70;56.80
11983;DHT22;72623;51.184;7.176;2024-03-25T10:03:17;10.80;54.90
11983;DHT22;72623;51.184;7.176;2024-03-25T10:05:43;10.80;49.90
11983;DHT22;72623;51.184;7.176;2024-03-25T10:08:09;10.90;50.40
11983;DHT22;72623;51.184;7.176;2024-03-25T10:10:35;10.90;50.40
11983;DHT22;72623;51.184;7.176;2024-03-25T10:13:01;11.00;50.10
11983;DHT22;72623;51.184;7.176;2024-03-25T10:15:27;11.10;48.60
11983;DHT22;72623;51.184;7.176;2024-03-25T10:17:53;11.10;42.30
11983;DHT22;72623;51.184;7.176;2024-03-25T10:20:19;11.10;44.20
11983;DHT22;72623;51.184;7.176;2024-03-25T10:22:45;11.10;44.70
11983;DHT22;72623;51.184;7.176;2024-03-25T10:25:28;11.10;41.90
11983;DHT22;72623;51.184;7.176;2024-03-25T10:27:56;11.00;38.70
11983;DHT22;72623;51.184;7.176;2024-03-25T10:30:22;10.90;41.00
11983;DHT22;72623;51.184;7.176;2024-03-25T10:33:04;10.80;37.30
11983;DHT22;72623;51.184;7.176;2024-03-25T10:35:32;10.70;38.80
11983;DHT22;72623;51.184;7.176;2024-03-25T10:38:05;10.70;41.00
11983;DHT22;72623;51.184;7.176;2024-03-25T10:40:33;10.80;42.00
11983;DHT22;72623;51.184;7.176;2024-03-25T10:45:30;11.10;34.70
11983;DHT22;72623;51.184;7.176;2024-03-25T10:50:38;10.90;31.30
11983;DHT22;72623;51.184;7.176;2024-03-25T10:53:05;11.00;30.50
11983;DHT22;72623;51.184;7.176;2024-03-25T10:55:36;11.00;29.60
11983;DHT22;72623;51.184;7.176;2024-03-25T10:58:06;11.00;32.80
11983;DHT22;72623;51.184;7.176;2024-03-25T11:00:53;11.00;34.60
11983;DHT22;72623;51.184;7.176;2024-03-25T11:03:27;11.00;30.70
11983;DHT22;72623;51.184;7.176;2024-03-25T11:05:59;10.90;32.50
11983;DHT22;72623;51.184;7.176;2024-03-25T11:09:01;10.90;31.50
11983;DHT22;72623;51.184;7.176;2024-03-25T11:11:36;10.80;31.40
11983;DHT22;72623;51.184;7.176;2024-03-25T11:23:22;10.90;38.00
11983;DHT22;72623;51.184;7.176;2024-03-25T11:28:39;11.10;34.00
11983;DHT22;72623;51.184;7.176;2024-03-25T11:31:15;11.20;31.20
11983;DHT22;72623;51.184;7.176;2024-03-25T11:33:57;11.20;31.50
11983;DHT22;72623;51.184;7.176;2024-03-25T11:36:32;11.20;31.90
11983;DHT22;72623;51.184;7.176;2024-03-25T11:39:02;11.20;30.40
11983;DHT22;72623;51.184;7.176;2024-03-25T11:41:29;11.20;30.90
11983;DHT22;72623;51.184;7.176;2024-03-25T11:43:55;11.00;30.50
11983;DHT22;72623;51.184;7.176;2024-03-25T11:46:53;10.90;28.70
11983;DHT22;72623;51.184;7.176;2024-03-25T11:49:30;10.90;28.60
11983;DHT22;72623;51.184;7.176;2024-03-25T11:51:58;11.00;28.70
11983;DHT22;72623;51.184;7.176;2024-03-25T11:54:25;11.00;27.50
11983;DHT22;72623;51.184;7.176;2024-03-25T11:56:52;11.10;28.40
11983;DHT22;72623;51.184;7.176;2024-03-25T11:59:19;11.20;28.90
11983;DHT22;72623;51.184;7.176;2024-03-25T12:01:45;11.40;25.80
11983;DHT22;72623;51.184;7.176;2024-03-25T12:04:18;11.50;23.80
11983;DHT22;72623;51.184;7.176;2024-03-25T12:06:48;11.60;21.70
11983;DHT22;72623;51.184;7.176;2024-03-25T12:09:17;11.60;22.80
11983;DHT22;72623;51.184;7.176;2024-03-25T12:12:01;11.60;20.70
11983;DHT22;72623;51.184;7.176;2024-03-25T12:14:31;11.60;19.90
11983;DHT22;72623;51.184;7.176;2024-03-25T12:16:57;11.60;19.80
11983;DHT22;72623;51.184;7.176;2024-03-25T12:19:26;11.70;23.30
11983;DHT22;72623;51.184;7.176;2024-03-25T12:22:01;11.80;20.30
11983;DHT22;72623;51.184;7.176;2024-03-25T12:24:28;11.80;20.90
11983;DHT22;72623;51.184;7.176;2024-03-25T12:26:55;11.90;23.40
11983;DHT22;72623;51.184;7.176;2024-03-25T12:29:21;12.00;18.20
11983;DHT22;72623;51.184;7.176;2024-03-25T12:31:54;11.90;16.70
11983;DHT22;72623;51.184;7.176;2024-03-25T12:34:33;12.00;18.00
11983;DHT22;72623;51.184;7.176;2024-03-25T12:37:03;12.00;17.10
11983;DHT22;72623;51.184;7.176;2024-03-25T12:39:29;12.10;17.90
11983;DHT22;72623;51.184;7.176;2024-03-25T12:41:55;12.00;14.70
11983;DHT22;72623;51.184;7.176;2024-03-25T12:44:21;12.00;10.90
11983;DHT22;72623;51.184;7.176;2024-03-25T12:46:47;12.00;12.20
11983;DHT22;72623;51.184;7.176;2024-03-25T12:49:29;12.00;14.00
11983;DHT22;72623;51.184;7.176;2024-03-25T12:51:55;12.00;12.70
11983;DHT22;72623;51.184;7.176;2024-03-25T12:54:20;12.00;13.30
11983;DHT22;72623;51.184;7.176;2024-03-25T12:56:46;12.10;12.70
11983;DHT22;72623;51.184;7.176;2024-03-25T12:59:12;12.00;10.30
11983;DHT22;72623;51.184;7.176;2024-03-25T13:01:38;11.90;8.10
11983;DHT22;72623;51.184;7.176;2024-03-25T13:04:04;11.90;12.70
11983;DHT22;72623;51.184;7.176;2024-03-25T13:06:30;12.00;8.10
11983;DHT22;72623;51.184;7.176;2024-03-25T13:08:55;12.10;8.10
11983;DHT22;72623;51.184;7.176;2024-03-25T13:11:21;12.10;10.10
11983;DHT22;72623;51.184;7.176;2024-03-25T13:13:47;12.20;10.00
11983;DHT22;72623;51.184;7.176;2024-03-25T13:16:16;12.30;9.50
11983;DHT22;72623;51.184;7.176;2024-03-25T13:18:42;12.40;7.30
11983;DHT22;72623;51.184;7.176;2024-03-25T13:21:13;12.40;8.80
11983;DHT22;72623;51.184;7.176;2024-03-25T13:23:39;12.30;6.10
11983;DHT22;72623;51.184;7.176;2024-03-25T13:26:05;12.30;6.30
11983;DHT22;72623;51.184;7.176;2024-03-25T13:28:31;12.30;7.50
11983;DHT22;72623;51.184;7.176;2024-03-25T13:31:00;12.20;6.80
11983;DHT22;72623;51.184;7.176;2024-03-25T13:33:30;12.10;6.40
11983;DHT22;72623;51.184;7.176;2024-03-25T13:35:56;12.00;6.70
11983;DHT22;72623;51.184;7.176;2024-03-25T13:38:22;12.00;6.50
11983;DHT22;72623;51.184;7.176;2024-03-25T13:40:47;11.90;7.60
11983;DHT22;72623;51.184;7.176;2024-03-25T13:43:14;11.80;6.70
11983;DHT22;72623;51.184;7.176;2024-03-25T13:45:47;11.80;6.00
11983;DHT22;72623;51.184;7.176;2024-03-25T13:48:14;11.70;4.90
11983;DHT22;72623;51.184;7.176;2024-03-25T13:50:44;11.70;5.60
11983;DHT22;72623;51.184;7.176;2024-03-25T13:53:12;11.70;5.30
11983;DHT22;72623;51.184;7.176;2024-03-25T13:56:15;11.70;4.30
11983;DHT22;72623;51.184;7.176;2024-03-25T13:58:47;11.70;7.10
11983;DHT22;72623;51.184;7.176;2024-03-25T14:01:19;11.80;3.50
11983;DHT22;72623;51.184;7.176;2024-03-25T14:04:29;11.80;5.10
11983;DHT22;72623;51.184;7.176;2024-03-25T14:10:13;11.50;5.00
11983;DHT22;72623;51.184;7.176;2024-03-25T14:13:15;11.50;3.90
11983;DHT22;72623;51.184;7.176;2024-03-25T14:15:56;11.40;4.40
11983;DHT22;72623;51.184;7.176;2024-03-25T14:18:22;11.40;3.00
11983;DHT22;72623;51.184;7.176;2024-03-25T14:21:17;11.40;3.10
11983;DHT22;72623;51.184;7.176;2024-03-25T14:23:48;11.40;3.00
11983;DHT22;72623;51.184;7.176;2024-03-25T14:26:14;11.40;3.80
11983;DHT22;72623;51.184;7.176;2024-03-25T14:28:49;11.40;2.50
11983;DHT22;72623;51.184;7.176;2024-03-25T14:31:16;11.50;1.70
11983;DHT22;72623;51.184;7.176;2024-03-25T14:34:17;11.50;2.10
11983;DHT22;72623;51.184;7.176;2024-03-25T14:36:42;11.60;2.30
11983;DHT22;72623;51.184;7.176;2024-03-25T14:39:11;11.50;1.00
11983;DHT22;72623;51.184;7.176;2024-03-25T14:41:41;11.50;1.00
11983;DHT22;72623;51.184;7.176;2024-03-25T14:44:51;11.50;1.00
11983;DHT22;72623;51.184;7.176;2024-03-25T14:47:20;11.40;1.00
11983;DHT22;72623;51.184;7.176;2024-03-25T14:49:46;11.50;1.00
11983;DHT22;72623;51.184;7.176;2024-03-25T14:52:15;11.40;1.00
11983;DHT22;72623;51.184;7.176;2024-03-25T14:54:41;11.40;1.00
11983;DHT22;72623;51.184;7.176;2024-03-25T14:57:06;11.40;1.00
11983;DHT22;72623;51.184;7.176;2024-03-25T14:59:32;11.30;1.00
11983;DHT22;72623;51.184;7.176;2024-03-25T15:02:00;11.30;1.00
11983;DHT22;72623;51.184;7.176;2024-03-25T15:04:33;11.20;1.00
11983;DHT22;72623;51.184;7.176;2024-03-25T15:06:59;11.20;1.00
11983;DHT22;72623;51.184;7.176;2024-03-25T15:09:25;11.20;1.00
11983;DHT22;72623;51.184;7.176;2024-03-25T15:11:51;11.20;1.00
11983;DHT22;72623;51.184;7.176;2024-03-25T15:14:16;11.20;1.00
11983;DHT22;72623;51.184;7.176;2024-03-25T15:16:42;11.10;1.00
11983;DHT22;72623;51.184;7.176;2024-03-25T15:19:08;11.10;1.00
11983;DHT22;72623;51.184;7.176;2024-03-25T15:21:34;11.10;1.00
11983;DHT22;72623;51.184;7.176;2024-03-25T15:24:00;11.10;1.00
11983;DHT22;72623;51.184;7.176;2024-03-25T15:26:26;11.10;1.00
11983;DHT22;72623;51.184;7.176;2024-03-25T15:28:52;11.10;1.00
11983;DHT22;72623;51.184;7.176;2024-03-25T15:31:18;11.10;1.00
11983;DHT22;72623;51.184;7.176;2024-03-25T15:33:44;11.10;1.00
11983;DHT22;72623;51.184;7.176;2024-03-25T15:36:10;10.90;1.00
11983;DHT22;72623;51.184;7.176;2024-03-25T15:38:35;11.00;1.00
11983;DHT22;72623;51.184;7.176;2024-03-25T15:41:01;11.00;1.00
11983;DHT22;72623;51.184;7.176;2024-03-25T15:43:27;11.00;1.00
11983;DHT22;72623;51.184;7.176;2024-03-25T15:45:54;10.90;1.00
11983;DHT22;72623;51.184;7.176;2024-03-25T15:48:24;11.00;1.00
11983;DHT22;72623;51.184;7.176;2024-03-25T15:50:50;11.00;1.00
11983;DHT22;72623;51.184;7.176;2024-03-25T15:53:16;11.00;1.00
11983;DHT22;72623;51.184;7.176;2024-03-25T15:55:43;11.00;1.00
11983;DHT22;72623;51.184;7.176;2024-03-25T15:58:09;10.90;1.00
11983;DHT22;72623;51.184;7.176;2024-03-25T16:00:35;10.80;1.00
11983;DHT22;72623;51.184;7.176;2024-03-25T16:03:03;10.80;1.00
11983;DHT22;72623;51.184;7.176;2024-03-25T16:05:31;10.80;1.00
11983;DHT22;72623;51.184;7.176;2024-03-25T16:07:57;10.80;1.00
11983;DHT22;72623;51.184;7.176;2024-03-25T16:10:25;10.80;1.00